Time;durP1;ratioP1;P1;durP2;ratioP2;P2;SDS_P1;SDS_P2;PMS_P1;PMS_P2;Temp;Humidity;BMP_temperature;BMP_pressure;BME280_temperature;BME280_humidity;BME280_pressure;Samples;Min_cycle;Max_cycle;Signal;HPM_P1;HPM_P2
2022/10/20 00:01:21;;;;;;;15.30;6.43;;;;;;;;;;6275200;22;20015;-90
2022/10/20 00:03:48;;;;;;;10.07;6.05;;;;;;;;;;6299875;22;20022;-89
2022/10/20 00:06:14;;;;;;;11.43;5.40;;;;;;;;;;6329387;22;20089;-87
2022/10/20 00:08:41;;;;;;;13.82;6.20;;;;;;;;;;6328972;22;20029;-88
2022/10/20 00:11:08;;;;;;;15.98;7.45;;;;;;;;;;6301532;22;20018;-86
2022/10/20 00:13:34;;;;;;;16.27;6.88;;;;;;;;;;6311195;22;20038;-89
2022/10/20 00:16:00;;;;;;;10.60;6.82;;;;;;;;;;6314852;22;20074;-89
2022/10/20 00:18:36;;;;;;;10.02;6.45;;;;;;;;;;6292295;22;20079;-89
2022/10/20 00:21:06;;;;;;;11.90;6.20;;;;;;;;;;6301206;22;20014;-89
2022/10/20 00:23:32;;;;;;;11.80;6.40;;;;;;;;;;6302953;22;20619;-91
2022/10/20 00:26:03;;;;;;;10.18;6.60;;;;;;;;;;6303840;22;20014;-91
2022/10/20 00:28:32;;;;;;;11.10;6.78;;;;;;;;;;6335308;22;20018;-92
2022/10/20 00:30:58;;;;;;;11.18;6.20;;;;;;;;;;6333246;22;20018;-92
2022/10/20 00:33:25;;;;;;;11.95;5.65;;;;;;;;;;6306959;22;20026;-93
2022/10/20 00:36:09;;;;;;;14.38;6.13;;;;;;;;;;6304249;22;20104;-90
2022/10/20 00:38:39;;;;;;;9.45;5.88;;;;;;;;;;6278387;22;20050;-94
2022/10/20 00:41:09;;;;;;;20.08;6.45;;;;;;;;;;6334173;22;20054;-87
2022/10/20 00:44:04;;;;;;;15.10;6.72;;;;;;;;;;6330481;22;20022;-92
2022/10/20 00:46:56;;;;;;;13.63;6.32;;;;;;;;;;6332616;22;20018;-90
2022/10/20 00:49:25;;;;;;;14.20;6.15;;;;;;;;;;6329021;22;20023;-90
2022/10/20 00:51:52;;;;;;;15.98;6.30;;;;;;;;;;6276249;22;20026;-91
2022/10/20 00:54:20;;;;;;;11.15;5.90;;;;;;;;;;6329184;22;20025;-89
2022/10/20 00:56:47;;;;;;;10.65;5.78;;;;;;;;;;6302810;22;20015;-92
2022/10/20 00:59:19;;;;;;;14.20;5.90;;;;;;;;;;6329617;22;20523;-90
2022/10/20 01:01:45;;;;;;;10.02;5.50;;;;;;;;;;6303247;22;20022;-88
2022/10/20 01:04:11;;;;;;;12.13;5.93;;;;;;;;;;6329866;22;20042;-88
2022/10/20 01:06:37;;;;;;;10.00;5.20;;;;;;;;;;6298517;22;20363;-89
2022/10/20 01:09:04;;;;;;;7.85;5.03;;;;;;;;;;6303817;22;20026;-89
2022/10/20 01:11:33;;;;;;;9.32;5.40;;;;;;;;;;6302066;22;20390;-89
2022/10/20 01:14:14;;;;;;;8.93;4.90;;;;;;;;;;6333065;22;20528;-87
2022/10/20 01:17:01;;;;;;;12.43;4.85;;;;;;;;;;6275771;22;20014;-88
2022/10/20 01:19:36;;;;;;;10.63;5.38;;;;;;;;;;6305250;22;20088;-89
2022/10/20 01:22:22;;;;;;;9.50;5.05;;;;;;;;;;6305204;22;20467;-89
2022/10/20 01:24:54;;;;;;;9.80;5.35;;;;;;;;;;6282925;22;20026;-87
2022/10/20 01:27:31;;;;;;;11.57;5.38;;;;;;;;;;6336163;22;20029;-88
2022/10/20 01:30:04;;;;;;;15.20;6.00;;;;;;;;;;6303557;22;20023;-90
2022/10/20 01:33:01;;;;;;;8.40;5.72;;;;;;;;;;6279515;22;20139;-86
2022/10/20 01:35:45;;;;;;;11.13;5.35;;;;;;;;;;6299884;22;20027;-86
2022/10/20 01:38:49;;;;;;;11.15;5.53;;;8.60;99.90;;;;;;6330036;22;20019;-87
2022/10/20 01:41:33;;;;;;;8.45;5.65;;;;;;;;;;6334141;22;20376;-91
2022/10/20 01:43:59;;;;;;;;;;;;;;;;;;6309034;22;20390;-89
2022/10/20 01:46:26;;;;;;;9.68;5.70;;;;;;;;;;6286768;22;19914;-91
2022/10/20 01:48:53;;;;;;;11.35;5.55;;;;;;;;;;6295253;22;20097;-91
2022/10/20 01:51:28;;;;;;;11.95;5.63;;;;;;;;;;6298075;22;20714;-88
2022/10/20 01:53:55;;;;;;;10.48;5.35;;;;;;;;;;6338869;22;20029;-89
2022/10/20 01:56:29;;;;;;;10.68;5.55;;;;;;;;;;6337240;22;20085;-88
2022/10/20 01:59:18;;;;;;;8.65;5.53;;;;;;;;;;6336956;22;20076;-87
2022/10/20 02:02:32;;;;;;;12.63;5.78;;;;;;;;;;6282404;22;20022;-87
2022/10/20 02:05:14;;;;;;;11.15;5.78;;;;;;;;;;6209893;23;20044;-87
2022/10/20 02:07:41;;;;;;;11.80;6.05;;;;;;;;;;6160981;23;20035;-90
2022/10/20 02:10:35;;;;;;;9.80;5.57;;;;;;;;;;6239201;22;20097;-90
2022/10/20 02:13:12;;;;;;;11.35;6.35;;;;;;;;;;6306739;22;20025;-90
2022/10/20 02:15:46;;;;;;;11.65;5.93;;;;;;;;;;6335308;22;20079;-91
2022/10/20 02:18:14;;;;;;;9.10;6.20;;;;;;;;;;6336044;22;20022;-89
2022/10/20 02:20:41;;;;;;;10.30;5.90;;;;;;;;;;6274110;22;20955;-91
2022/10/20 02:23:14;;;;;;;10.32;6.47;;;;;;;;;;6272011;22;20057;-90
2022/10/20 02:25:41;;;;;;;15.18;5.53;;;;;;;;;;6302083;22;20027;-87
2022/10/20 02:28:27;;;;;;;9.73;6.18;;;;;;;;;;6302301;22;20289;-90
2022/10/20 02:30:57;;;;;;;9.50;6.15;;;;;;;;;;6305206;22;20015;-89
2022/10/20 02:33:26;;;;;;;11.88;6.38;;;;;;;;;;6333830;22;20010;-88
2022/10/20 02:36:04;;;;;;;9.60;6.00;;;;;;;;;;6282535;22;20019;-91
2022/10/20 02:38:33;;;;;;;9.13;6.00;;;;;;;;;;6337712;22;20011;-90
2022/10/20 02:41:10;;;;;;;9.45;6.05;;;;;;;;;;6338011;22;20029;-89
2022/10/20 02:43:36;;;;;;;9.88;5.85;;;;;;;;;;6279555;22;20023;-90
2022/10/20 02:46:15;;;;;;;11.48;6.07;;;;;;;;;;6273075;22;20077;-90
2022/10/20 02:48:47;;;;;;;13.65;6.25;;;;;;;;;;6297854;22;20102;-90
2022/10/20 02:51:14;;;;;;;11.48;6.53;;;;;;;;;;6300027;22;20023;-89
2022/10/20 02:53:49;;;;;;;15.32;7.60;;;;;;;;;;6301178;22;20064;-88
2022/10/20 02:56:15;;;;;;;10.70;7.15;;;;;;;;;;6272720;22;20454;-91
2022/10/20 02:58:41;;;;;;;12.57;7.15;;;;;;;;;;6274229;22;20015;-91
2022/10/20 03:01:10;;;;;;;8.73;6.63;;;;;;;;;;6274689;22;20023;-91
2022/10/20 03:03:40;;;;;;;9.65;7.28;;;;;;;;;;6297095;22;20057;-86
2022/10/20 03:06:07;;;;;;;9.98;7.47;;;;;;;;;;6298998;22;20023;-89
2022/10/20 03:08:33;;;;;;;14.75;7.35;;;;;;;;;;6299190;22;20019;-89
2022/10/20 03:11:05;;;;;;;12.63;6.57;;;;;;;;;;6271962;22;20061;-89
2022/10/20 03:13:31;;;;;;;12.95;6.75;;;;;;;;;;6298116;22;20467;-89
2022/10/20 03:15:58;;;;;;;9.77;7.30;;;;;;;;;;6298251;22;20023;-87
2022/10/20 03:18:36;;;;;;;10.35;7.20;;;;;;;;;;6272355;22;20071;-89
2022/10/20 03:21:14;;;;;;;14.35;7.28;;;;;;;;;;6297288;22;20030;-92
2022/10/20 03:30:30;;;;;;;11.85;8.30;;;;;;;;;;6332715;22;20027;-90
2022/10/20 03:32:56;;;;;;;12.20;7.50;;;;;;;;;;6278976;22;20030;-88
2022/10/20 03:35:22;;;;;;;15.55;8.45;;;;;;;;;;6278459;22;20024;-88
2022/10/20 03:37:48;;;;;;;12.60;7.47;;;;;;;;;;6279494;22;20019;-88
2022/10/20 03:40:20;;;;;;;16.20;8.60;;;;;;;;;;6307432;22;20014;-87
2022/10/20 03:42:58;;;;;;;20.25;8.60;;;;;;;;;;6278930;22;20023;-91
2022/10/20 03:45:24;;;;;;;11.93;7.90;;;;;;;;;;6253380;22;20068;-89
2022/10/20 03:47:51;;;;;;;11.75;7.90;;;;;;;;;;6277770;22;20018;-89
2022/10/20 03:50:17;;;;;;;14.05;8.85;;;;;;;;;;6332936;22;20164;-87
2022/10/20 03:53:05;;;;;;;23.05;8.77;;;7.80;99.90;;;;;;6304627;22;20141;-90
2022/10/20 03:55:31;;;;;;;24.33;8.50;;;;;;;;;;6305669;22;20014;-88
2022/10/20 03:57:57;;;;;;;14.90;8.05;;;;;;;;;;6333257;22;20435;-88
2022/10/20 04:00:33;;;;;;;12.77;8.13;;;;;;;;;;6305678;22;20014;-87
2022/10/20 04:03:11;;;;;;;14.63;8.30;;;;;;;;;;6308174;22;20084;-91
2022/10/20 04:05:50;;;;;;;16.05;8.57;;;;;;;;;;6305845;22;20019;-92
2022/10/20 04:08:16;;;;;;;13.65;9.00;;;;;;;;;;6338988;22;20022;-91
2022/10/20 04:10:42;;;;;;;16.95;9.38;;;;;;;;;;6322565;22;20104;-91
2022/10/20 04:13:08;;;;;;;12.55;9.27;;;;;;;;;;6325334;22;20098;-92
2022/10/20 04:15:34;;;;;;;14.88;9.23;;;;;;;;;;6321896;22;20023;-90
2022/10/20 04:18:00;;;;;;;19.63;9.85;;;;;;;;;;6324829;22;20019;-89
2022/10/20 04:20:26;;;;;;;15.27;9.65;;;;;;;;;;6309448;22;20021;-90
2022/10/20 04:22:59;;;;;;;15.32;9.55;;;;;;;;;;6284119;22;20151;-90
2022/10/20 04:25:25;;;;;;;15.27;9.27;;;;;;;;;;6307689;22;20148;-90
2022/10/20 04:27:51;;;;;;;16.67;10.30;;;;;;;;;;6308912;22;20023;-87
2022/10/20 04:30:36;;;;;;;16.42;10.70;;;;;;;;;;6280213;22;20018;-86
2022/10/20 04:33:37;;;;;;;14.48;10.30;;;;;;;;;;6271663;22;20030;-89
2022/10/20 04:36:05;;;;;;;18.60;10.38;;;;;;;;;;6299256;22;20098;-89
2022/10/20 04:38:31;;;;;;;17.83;11.35;;;;;;;;;;6248487;22;20445;-89
2022/10/20 04:40:58;;;;;;;18.90;10.65;;;;;;;;;;6224511;22;20015;-88
2022/10/20 04:43:25;;;;;;;15.50;10.50;;;;;;;;;;6245879;22;20019;-87
2022/10/20 04:45:58;;;;;;;15.30;10.73;;;;;;;;;;6246342;22;20051;-90
2022/10/20 04:48:30;;;;;;;17.83;12.50;;;;;;;;;;6264812;22;20028;-87
2022/10/20 04:51:22;;;;;;;19.02;12.00;;;;;;;;;;6298449;22;20042;-88
2022/10/20 04:53:51;;;;;;;16.73;11.48;;;;;;;;;;6296295;22;20068;-89
2022/10/20 04:56:50;;;;;;;;;;;;;;;;;;;;;
2022/10/20 05:03:08;;;;;;;15.68;12.00;;;;;;;;;;6309840;22;20371;-88
2022/10/20 05:06:03;;;;;;;16.05;12.07;;;;;;;;;;6304939;22;20034;-88
2022/10/20 05:11:39;;;;;;;16.52;12.95;;;;;;;;;;6332111;22;20068;-89
2022/10/20 05:14:06;;;;;;;17.33;12.52;;;;;;;;;;6334711;22;20084;-89
2022/10/20 05:16:51;;;;;;;20.58;12.90;;;;;;;;;;6230661;22;20091;-91
2022/10/20 05:19:17;;;;;;;20.83;12.48;;;;;;;;;;6239001;22;20020;-90
2022/10/20 05:21:43;;;;;;;17.10;13.05;;;;;;;;;;6216069;23;20341;-90
2022/10/20 05:24:18;;;;;;;15.90;12.82;;;;;;;;;;6214240;23;20060;-91
2022/10/20 05:26:44;;;;;;;19.38;13.18;;;;;;;;;;6187209;23;20021;-91
2022/10/20 05:29:11;;;;;;;19.80;13.65;;;;;;;;;;6182671;23;20119;-92
2022/10/20 05:31:38;;;;;;;17.58;12.80;;;;;;;;;;6158458;23;20039;-90
2022/10/20 05:34:05;;;;;;;21.08;13.48;;;;;;;;;;6206087;23;20024;-90
2022/10/20 05:36:31;;;;;;;21.40;13.82;;;;;;;;;;6156998;23;20138;-86
2022/10/20 05:38:57;;;;;;;18.48;13.52;;;;;;;;;;6178451;23;20013;-89
2022/10/20 05:44:10;;;;;;;21.45;13.13;;;;;;;;;;6301047;22;20015;-92
2022/10/20 05:46:39;;;;;;;31.67;14.63;;;;;;;;;;6246498;22;20470;-89
2022/10/20 05:49:06;;;;;;;23.42;14.57;;;;;;;;;;6274375;22;20023;-90
2022/10/20 05:51:36;;;;;;;22.15;15.50;;;;;;;;;;6271367;22;20015;-91
2022/10/20 05:54:03;;;;;;;20.90;15.60;;;;;;;;;;6301283;22;20019;-88
2022/10/20 05:56:29;;;;;;;22.67;14.55;;;;;;;;;;6299636;22;20019;-87
2022/10/20 05:59:05;;;;;;;21.33;14.48;;;;;;;;;;6270179;22;20983;-88
2022/10/20 06:02:14;;;;;;;23.13;14.88;;;;;;;;;;6299224;22;20019;-89
2022/10/20 06:05:12;;;;;;;20.10;13.73;;;;;;;;;;6270135;22;20404;-88
2022/10/20 06:07:38;;;;;;;22.45;13.43;;;;;;;;;;6246278;22;20102;-90
2022/10/20 06:10:11;;;;;;;23.40;13.65;;;;;;;;;;6176375;23;20024;-90
2022/10/20 06:12:43;;;;;;;25.45;14.23;;;;;;;;;;6203548;23;20043;-89
2022/10/20 06:15:30;;;;;;;20.33;15.55;;;;;;;;;;6199641;23;20020;-89
2022/10/20 06:17:59;;;;;;;20.17;13.43;;;;;;;;;;6202745;23;20051;-90
2022/10/20 06:20:37;;;;;;;23.92;16.90;;;;;;;;;;6202429;23;20062;-90
2022/10/20 06:23:24;;;;;;;22.38;14.93;;;;;;;;;;6154354;23;20017;-86
2022/10/20 06:26:07;;;;;;;19.95;13.88;;;;;;;;;;6210525;23;20381;-90
2022/10/20 06:28:34;;;;;;;22.95;14.73;;;;;;;;;;6185073;23;20044;-88
2022/10/20 06:31:13;;;;;;;21.35;14.38;;;;;;;;;;6217087;23;20036;-90
2022/10/20 06:33:39;;;;;;;20.52;14.20;;;;;;;;;;6222710;23;20024;-82
2022/10/20 06:36:06;;;;;;;24.92;14.15;;;;;;;;;;6224308;23;20020;-90
2022/10/20 06:38:32;;;;;;;23.70;15.43;;;;;;;;;;6218102;23;20056;-88
2022/10/20 06:41:08;;;;;;;23.45;16.27;;;;;;;;;;6254884;22;20105;-86
2022/10/20 06:43:34;;;;;;;26.48;15.50;;;;;;;;;;6301972;22;20112;-88
2022/10/20 06:48:26;;;;;;;21.42;14.75;;;;;;;;;;6301630;22;20034;-87
2022/10/20 06:50:59;;;;;;;24.13;13.25;;;;;;;;;;6272763;22;20061;-87
2022/10/20 06:53:44;;;;;;;19.50;13.80;;;;;;;;;;6273785;22;20071;-89
2022/10/20 06:59:44;;;;;;;19.75;13.75;;;;;;;;;;6329280;22;20022;-88
2022/10/20 07:02:53;;;;;;;16.80;13.10;;;;;;;;;;6279084;22;20072;-88
2022/10/20 07:05:20;;;;;;;16.23;12.90;;;;;;;;;;6307038;22;20018;-88
2022/10/20 07:07:47;;;;;;;16.73;13.00;;;;;;;;;;6281614;22;20360;-87
2022/10/20 07:10:13;;;;;;;19.45;12.82;;;;;;;;;;6303924;22;20064;-88
2022/10/20 07:12:51;;;;;;;20.30;13.93;;;;;;;;;;6280626;22;20026;-89
2022/10/20 07:15:33;;;;;;;18.23;13.52;;;;;;;;;;6253866;22;20021;-88
2022/10/20 07:17:59;;;;;;;17.73;13.27;;;;;;;;;;6255976;22;20054;-86
2022/10/20 07:20:37;;;;;;;16.20;13.07;;;;;;;;;;6334243;22;20018;-88
2022/10/20 07:23:10;;;;;;;15.90;13.45;;;;;;;;;;6335391;22;20102;-88
2022/10/20 07:25:51;;;;;;;19.10;13.25;;;;;;;;;;6304788;22;20451;-85
2022/10/20 07:28:20;;;;;;;19.90;15.70;;;;;;;;;;6306860;22;20143;-87
2022/10/20 07:30:56;;;;;;;15.52;13.38;;;;;;;;;;6253244;22;20455;-89
2022/10/20 07:33:22;;;;;;;18.13;12.77;;;;;;;;;;6282567;22;20046;-89
2022/10/20 07:35:49;;;;;;;14.45;11.98;;;;;;;;;;6330461;22;20049;-89
2022/10/20 07:38:15;;;;;;;19.70;11.88;;;;;;;;;;6304806;22;20022;-86
2022/10/20 07:40:41;;;;;;;15.00;11.98;;;;;;;;;;6329913;22;20786;-88
2022/10/20 07:43:16;;;;;;;18.10;11.07;;;;;;;;;;6303041;22;20019;-87
2022/10/20 07:45:42;;;;;;;14.10;10.60;;;;;;;;;;6302387;22;20019;-86
2022/10/20 07:48:17;;;;;;;14.65;10.60;;;;;;;;;;6253087;22;20011;-88
2022/10/20 07:50:43;;;;;;;19.88;10.65;;;;;;;;;;6330447;22;20023;-87
2022/10/20 07:53:16;;;;;;;13.13;10.45;;;;;;;;;;6280302;22;20054;-87
2022/10/20 07:55:42;;;;;;;14.50;10.85;;;;;;;;;;6278037;22;20018;-87
2022/10/20 07:58:31;;;;;;;14.95;10.45;;;;;;;;;;6254377;22;20120;-87
2022/10/20 08:00:57;;;;;;;12.68;9.93;;;;;;;;;;6209995;23;20016;-86
2022/10/20 08:03:23;;;;;;;15.30;9.98;;;;;;;;;;6182365;22;20031;-87
2022/10/20 08:05:49;;;;;;;13.05;9.98;;;;;;;;;;6184724;22;20016;-86
2022/10/20 08:08:40;;;;;;;17.75;10.40;;;;;;;;;;6210735;23;20020;-90
2022/10/20 08:11:19;;;;;;;13.82;10.02;;;;;;;;;;6235278;22;20012;-87
2022/10/20 08:13:54;;;;;;;14.85;10.05;;;;;;;;;;6206886;23;20453;-88
2022/10/20 08:16:21;;;;;;;14.57;9.70;;;;;;;;;;6184171;23;20024;-88
2022/10/20 08:18:47;;;;;;;12.15;10.05;;;;;;;;;;6232432;22;20097;-87
2022/10/20 08:21:14;;;;;;;13.10;9.30;;;;;;;;;;6208650;22;20028;-87
2022/10/20 08:23:41;;;;;;;15.73;9.18;;;;;;;;;;6184017;23;20369;-88
2022/10/20 08:26:26;;;;;;;12.18;9.35;;;;;;;;;;6265616;22;20101;-87
2022/10/20 08:29:08;;;;;;;12.70;9.77;;;;;;;;;;6224546;22;20102;-88
2022/10/20 08:31:40;;;;;;;14.45;9.43;;;;;;;;;;6303062;22;20102;-87
2022/10/20 08:34:07;;;;;;;16.50;9.20;;;;;;;;;;6275548;22;20027;-89
2022/10/20 08:37:00;;;;;;;11.95;9.02;;;;;;;;;;6324756;22;20192;-87
2022/10/20 08:39:41;;;;;;;11.23;8.80;;;;;;;;;;6331673;22;20018;-87
2022/10/20 08:42:18;;;;;;;14.07;9.27;;;;;;;;;;6299107;22;20347;-87
2022/10/20 08:44:57;;;;;;;16.20;9.10;;;;;;;;;;6304468;22;20057;-87
2022/10/20 08:47:32;;;;;;;11.52;9.35;;;;;;;;;;6302996;22;20057;-86
2022/10/20 08:49:59;;;;;;;;;;;;;;;;;;6331687;22;20023;-87
2022/10/20 08:52:25;;;;;;;13.75;9.23;;;;;;;;;;6277457;22;19918;-88
2022/10/20 08:55:03;;;;;;;14.55;10.68;;;;;;;;;;6308788;22;20025;-87
2022/10/20 08:57:34;;;;;;;12.35;9.05;;;;;;;;;;6341847;22;20066;-87
2022/10/20 09:00:30;;;;;;;13.25;8.65;;;;;;;;;;6279542;22;20019;-88
2022/10/20 09:03:19;;;;;;;12.05;8.95;;;;;;;;;;6205687;23;20495;-86
2022/10/20 09:06:02;;;;;;;11.70;8.63;;;;;;;;;;6177356;23;20016;-86
2022/10/20 09:08:30;;;;;;;19.65;8.18;;;;;;;;;;6204986;23;20044;-86
2022/10/20 09:10:56;;;;;;;14.52;8.65;;;;;;;;;;6155822;23;20023;-86
2022/10/20 09:13:24;;;;;;;9.88;7.88;;;;;;;;;;6206290;22;20075;-89
2022/10/20 09:16:05;;;;;;;;;;;;;;;;;;;;;
2022/10/20 09:18:56;;;;;;;12.00;8.70;;;;;;;;;;6328101;22;20030;-87
2022/10/20 09:21:22;;;;;;;11.63;8.82;;;;;;;;;;6304087;22;20466;-89
2022/10/20 09:23:51;;;;;;;14.68;8.68;;;;;;;;;;6301350;22;20065;-89
2022/10/20 09:29:02;;;;;;;11.20;8.07;;;;;;;;;;6329738;22;20026;-89
2022/10/20 09:31:33;;;;;;;15.52;8.68;;;;;;;;;;6275994;22;20076;-87
2022/10/20 09:33:59;;;;;;;14.13;8.80;;;;;;;;;;6275275;22;20023;-88
2022/10/20 09:36:30;;;;;;;15.75;9.20;;;;;;;;;;6276870;22;20160;-87
2022/10/20 09:38:56;;;;;;;14.05;9.02;;;;;;;;;;6278007;22;20014;-87
2022/10/20 09:41:38;;;;;;;11.35;8.50;;;;;;;;;;6305201;22;20455;-87
2022/10/20 09:44:36;;;;;;;15.05;8.23;;;;;;;;;;6248502;22;20030;-88
2022/10/20 09:47:02;;;;;;;14.52;8.70;;;;;;;;;;6304133;22;20497;-87
2022/10/20 09:49:48;;;;;;;11.10;8.05;;;;;;;;;;6301030;22;20131;-87
2022/10/20 09:52:33;;;;;;;11.02;7.40;;;;;;;;;;6301401;22;20020;-87
2022/10/20 09:55:28;;;;;;;10.60;8.20;;;;;;;;;;6277163;22;20109;-87
2022/10/20 09:57:58;;;;;;;11.57;7.95;;;;;;;;;;6301106;22;20030;-87
2022/10/20 10:03:18;;;;;;;12.25;8.55;;;;;;;;;;6300417;22;20028;-88
2022/10/20 10:05:45;;;;;;;12.73;8.10;;;;;;;;;;6274859;22;20023;-86
2022/10/20 10:09:01;;;;;;;11.73;8.60;;;11.00;99.90;;;;;;6297878;22;20344;-87
2022/10/20 10:11:34;;;;;;;20.85;14.35;;;;;;;;;;6277731;22;20018;-87
2022/10/20 10:14:01;;;;;;;75.82;34.28;;;;;;;;;;6304519;22;20106;-88
2022/10/20 10:16:27;;;;;;;14.30;9.13;;;;;;;;;;6308712;22;20022;-86
2022/10/20 10:28:40;;;;;;;10.82;8.68;;;;;;;;;;6329746;22;20027;-87
2022/10/20 10:31:20;;;;;;;14.50;9.45;;;;;;;;;;6279236;22;20037;-88
2022/10/20 10:34:21;;;;;;;14.55;8.85;;;;;;;;;;6332736;22;20030;-86
2022/10/20 10:36:51;;;;;;;13.85;8.25;;;;;;;;;;6302848;22;20039;-88
2022/10/20 10:39:17;;;;;;;17.60;9.15;;;;;;;;;;6306996;22;20027;-88
2022/10/20 10:42:02;;;;;;;16.45;9.35;;;;;;;;;;6277087;22;20046;-88
2022/10/20 10:44:59;;;;;;;19.05;8.15;;;;;;;;;;6304172;22;20022;-87
2022/10/20 10:48:03;;;;;;;15.50;9.07;;;11.70;99.90;;;;;;6277058;22;20022;-88
2022/10/20 10:50:54;;;;;;;9.25;7.72;;;;;;;;;;6277647;22;20057;-87
2022/10/20 10:53:54;;;;;;;15.23;8.82;;;;;;;;;;6300401;22;20780;-88
2022/10/20 10:56:20;;;;;;;15.50;11.02;;;;;;;;;;6272021;22;20459;-87
2022/10/20 10:58:58;;;;;;;11.05;9.13;;;;;;;;;;6301915;22;20026;-86
2022/10/20 11:01:43;;;;;;;19.10;12.02;;;;;;;;;;6298832;22;20034;-86
2022/10/20 11:04:09;;;;;;;;;;;;;;;;;;6298749;22;20020;-85
2022/10/20 11:06:44;;;;;;;17.77;12.07;;;;;;;;;;6299398;22;19915;-86
2022/10/20 11:09:22;;;;;;;22.50;14.60;;;;;;;;;;6298679;22;20015;-86
2022/10/20 11:12:13;;;;;;;12.35;10.25;;;;;;;;;;6302200;22;20027;-85
2022/10/20 11:14:40;;;;;;;10.75;9.02;;;;;;;;;;6307514;22;20034;-86
2022/10/20 11:17:15;;;;;;;13.07;9.35;;;;;;;;;;6314517;22;20052;-87
2022/10/20 11:19:47;;;;;;;13.48;8.77;;;;;;;;;;6302239;22;20023;-85
2022/10/20 11:22:25;;;;;;;11.75;8.63;;;;;;;;;;6299583;22;20026;-86
2022/10/20 11:24:52;;;;;;;15.43;9.85;;;;;;;;;;6271322;22;20023;-85
2022/10/20 11:27:20;;;;;;;13.75;9.52;;;;;;;;;;6298472;22;20470;-86
2022/10/20 11:30:08;;;;;;;11.38;8.65;;;;;;;;;;6300529;22;20023;-86
2022/10/20 11:32:43;;;;;;;15.88;9.85;;;;;;;;;;6298294;22;20022;-85
2022/10/20 11:35:28;;;;;;;17.35;10.35;;;;;;;;;;6301002;22;20023;-85
2022/10/20 11:38:02;;;;;;;10.13;9.05;;;;;;;;;;6298227;22;20102;-86
2022/10/20 11:43:45;;;;;;;11.30;8.55;;;;;;;;;;6286581;22;20367;-87
2022/10/20 11:46:22;;;;;;;13.95;9.32;;;;;;;;;;6269687;22;20061;-87
2022/10/20 11:49:03;;;;;;;11.90;8.27;;;;;;;;;;6300306;22;20061;-86
2022/10/20 11:51:29;;;;;;;13.93;9.32;;;;;;;;;;6270789;22;20512;-86
2022/10/20 11:54:14;;;;;;;13.40;9.05;;;;;;;;;;6320855;22;20037;-86
2022/10/20 11:56:47;;;;;;;11.80;9.18;;;;;;;;;;6304271;22;20382;-85
2022/10/20 11:59:32;;;;;;;22.17;9.55;;;;;;;;;;6277342;22;20163;-86
2022/10/20 12:02:26;;;;;;;15.02;9.32;;;;;;;;;;6331900;22;20148;-87
2022/10/20 12:05:11;;;;;;;12.05;8.77;;;;;;;;;;6301879;22;20019;-86
2022/10/20 12:07:37;;;;;;;14.25;10.60;;;;;;;;;;6278376;22;21249;-86
2022/10/20 12:10:09;;;;;;;16.92;10.15;;;;;;;;;;6300300;22;20056;-86
2022/10/20 12:15:52;;;;;;;9.93;8.93;;;;;;;;;;6176229;23;20096;-85
2022/10/20 12:18:49;;;;;;;12.38;9.50;;;;;;;;;;6171511;23;20257;-86
2022/10/20 12:21:53;;;;;;;12.38;9.82;;;;;;;;;;6147881;23;20414;-87
2022/10/20 12:24:41;;;;;;;13.77;9.13;;;;;;;;;;6146561;23;20409;-86
2022/10/20 12:27:35;;;;;;;17.83;10.48;;;;;;;;;;6261023;22;20022;-85
2022/10/20 12:42:47;;;;;;;15.15;11.10;;;;;;;;;;6339241;22;20064;-88
2022/10/20 13:01:27;;;;;;;23.02;12.48;;;;;;;;;;6286477;22;20089;-87
2022/10/20 13:19:43;;;;;;;19.73;14.93;;;;;;;;;;6349867;22;20030;-89
2022/10/20 13:22:36;;;;;;;24.45;16.63;;;;;;;;;;6292366;22;20015;-86
2022/10/20 13:38:30;;;;;;;14.30;12.27;;;;;;;;;;6346554;22;20148;-87
2022/10/20 13:53:59;;;;;;;21.98;16.83;;;;;;;;;;6245536;22;20388;-87
2022/10/20 13:56:58;;;;;;;20.27;16.17;;;;;;;;;;6219106;22;20019;-87
2022/10/20 14:00:00;;;;;;;22.58;16.88;;;;;;;;;;6097318;23;20026;-87
2022/10/20 14:02:28;;;;;;;20.80;17.25;;;;;;;;;;6083558;23;20022;-89
2022/10/20 14:05:13;;;;;;;20.90;16.85;;;;;;;;;;6072518;23;20018;-85
2022/10/20 14:07:45;;;;;;;24.35;18.95;;;;;;;;;;6071161;23;20085;-88
2022/10/20 14:10:30;;;;;;;25.80;17.95;;;;;;;;;;6094934;23;20085;-87
2022/10/20 14:13:02;;;;;;;24.02;17.50;;;;;;;;;;6120665;23;20093;-86
2022/10/20 14:15:33;;;;;;;22.50;18.55;;;;;;;;;;6160433;22;20015;-86
2022/10/20 14:18:01;;;;;;;21.55;18.48;;;;;;;;;;6223005;22;20031;-86
2022/10/20 14:20:28;;;;;;;20.33;17.20;;;;;;;;;;6272795;22;20019;-87
2022/10/20 14:22:59;;;;;;;25.05;19.20;;;;;;;;;;6195771;22;20050;-86
2022/10/20 14:25:34;;;;;;;22.98;18.83;;;;;;;;;;6244104;22;20060;-86
2022/10/20 14:28:20;;;;;;;22.00;17.88;;;;;;;;;;6248091;22;20026;-87
2022/10/20 14:30:52;;;;;;;21.05;17.33;;;;;;;;;;6219066;22;20058;-87
2022/10/20 14:33:20;;;;;;;22.35;17.83;;;;;;;;;;6220074;22;20627;-85
2022/10/20 14:35:53;;;;;;;20.80;17.27;;;;;;;;;;6244033;22;20023;-86
2022/10/20 14:38:34;;;;;;;23.08;17.42;;;;;;;;;;6273153;22;20023;-85
2022/10/20 14:41:01;;;;;;;22.58;17.80;;;;;;;;;;6217519;22;20012;-86
2022/10/20 14:43:42;;;;;;;23.35;17.73;;;;;;;;;;6219615;22;20023;-86
2022/10/20 14:46:12;;;;;;;24.65;19.25;;;;;;;;;;6242721;22;20023;-85
2022/10/20 14:48:43;;;;;;;26.23;18.75;;;;;;;;;;6240984;22;20341;-84
2022/10/20 14:51:28;;;;;;;25.25;19.38;;;;;;;;;;6268643;22;20535;-86
2022/10/20 14:54:28;;;;;;;25.50;19.35;;;;;;;;;;6240497;22;20023;-82
2022/10/20 14:56:57;;;;;;;29.75;20.48;;;;;;;;;;6267337;22;20023;-87
2022/10/20 14:59:25;;;;;;;27.42;19.95;;;;;;;;;;6267359;22;20502;-86
2022/10/20 15:02:03;;;;;;;25.63;19.35;;;;;;;;;;6268224;22;20098;-84
2022/10/20 15:04:29;;;;;;;27.95;19.50;;;;;;;;;;6239155;22;20019;-84
2022/10/20 15:07:22;;;;;;;29.58;22.00;;;;;;;;;;6266434;22;20018;-85
2022/10/20 15:10:13;;;;;;;26.85;20.20;;;;;;;;;;6191050;22;20070;-85
2022/10/20 15:12:47;;;;;;;33.78;20.13;;;;;;;;;;6242470;22;20025;-85
2022/10/20 15:15:19;;;;;;;26.75;20.80;;;;;;;;;;6273973;22;20047;-85
2022/10/20 15:17:47;;;;;;;28.38;21.52;;;;;;;;;;6269762;22;20023;-85
2022/10/20 15:20:37;;;;;;;28.00;22.15;;;;;;;;;;6268859;22;20023;-83
2022/10/20 15:23:11;;;;;;;29.27;20.38;;;;;;;;;;6215107;22;20401;-86
2022/10/20 15:25:50;;;;;;;29.00;22.02;;;;;;;;;;6269121;22;20030;-86
2022/10/20 15:31:44;;;;;;;30.30;22.60;;;;;;;;;;6256733;22;20151;-86
2022/10/20 15:34:20;;;;;;;31.55;21.98;;;;;;;;;;6216677;22;20020;-87
2022/10/20 15:39:50;;;;;;;28.33;21.20;;;;;;;;;;6270068;22;20018;-86
2022/10/20 15:42:16;;;;;;;28.48;23.02;;;;;;;;;;6243904;22;20030;-86
2022/10/20 15:45:13;;;;;;;25.48;21.40;;;;;;;;;;6192390;22;20019;-86
2022/10/20 15:54:05;;;;;;;31.83;23.20;;;12.00;99.90;;;;;;6305051;22;20030;-86
2022/10/20 15:57:02;;;;;;;33.33;22.08;;;;;;;;;;6246794;22;20442;-86
2022/10/20 15:59:29;;;;;;;30.58;22.50;;;;;;;;;;6281641;22;20020;-89
2022/10/20 16:08:04;;;;;;;32.15;23.38;;;;;;;;;;6328131;22;20031;-87
2022/10/20 16:10:42;;;;;;;;;;;;;;;;;;6308997;22;20023;-87
2022/10/20 16:13:08;;;;;;;31.50;24.23;;;;;;;;;;6334164;22;19971;-86
2022/10/20 16:15:34;;;;;;;32.90;25.52;;;;;;;;;;6306937;22;20019;-87
2022/10/20 16:18:09;;;;;;;29.27;23.77;;;;;;;;;;6256138;22;20348;-87
2022/10/20 16:20:35;;;;;;;31.38;23.33;;;;;;;;;;6334058;22;20405;-86
2022/10/20 16:23:01;;;;;;;37.33;23.98;;;;;;;;;;6335734;22;20098;-85
2022/10/20 16:25:30;;;;;;;31.48;24.38;;;;;;;;;;6286309;22;20110;-86
2022/10/20 16:28:06;;;;;;;37.55;25.15;;;;;;;;;;6347693;22;20018;-87
2022/10/20 16:30:32;;;;;;;36.63;25.55;;;;;;;;;;6295160;22;20023;-87
2022/10/20 16:32:58;;;;;;;32.20;23.77;;;;;;;;;;6347455;22;20463;-86
2022/10/20 16:35:25;;;;;;;31.67;25.50;;;;;;;;;;6321642;22;20015;-86
2022/10/20 16:37:51;;;;;;;35.72;25.20;;;;;;;;;;6268506;22;20026;-86
2022/10/20 16:40:23;;;;;;;31.23;24.23;;;;;;;;;;6349456;22;20033;-86
2022/10/20 16:42:49;;;;;;;29.52;23.95;;;;;;;;;;6293380;22;20083;-86
2022/10/20 16:45:16;;;;;;;32.13;24.17;;;;;;;;;;6270106;22;20019;-86
2022/10/20 16:47:42;;;;;;;33.33;24.48;;;;;;;;;;6318918;22;20015;-87
2022/10/20 16:50:08;;;;;;;30.35;23.23;;;;;;;;;;6348906;22;20023;-86
2022/10/20 16:52:34;;;;;;;37.47;25.58;;;;;;;;;;6319324;22;20025;-86
2022/10/20 17:00:43;;;;;;;30.90;24.90;;;;;;;;;;6355969;22;20027;-86
2022/10/20 17:03:09;;;;;;;33.65;25.95;;;;;;;;;;6317709;22;20019;-88
2022/10/20 17:05:35;;;;;;;36.00;26.15;;;;;;;;;;6318875;22;20053;-86
2022/10/20 17:08:20;;;;;;;28.70;23.55;;;;;;;;;;6321145;22;20019;-89
2022/10/20 17:16:25;;;;;;;33.63;25.05;;;;;;;;;;6331183;22;20551;-93
2022/10/20 17:19:31;;;;;;;33.13;23.85;;;;;;;;;;6345108;22;20023;-90
2022/10/20 17:21:58;;;;;;;28.25;23.90;;;;;;;;;;6295079;22;20026;-92
2022/10/20 17:24:24;;;;;;;30.42;24.35;;;;;;;;;;6320373;22;20018;-86
2022/10/20 17:26:50;;;;;;;32.30;24.02;;;;;;;;;;6293948;22;20026;-88
2022/10/20 17:29:16;;;;;;;31.00;24.02;;;;;;;;;;6289070;22;20011;-87
2022/10/20 17:31:43;;;;;;;33.42;24.58;;;;;;;;;;6322250;22;20022;-88
2022/10/20 17:34:09;;;;;;;32.35;23.20;;;;;;;;;;6296825;22;20457;-87